createdAt,value
2023-05-16T00:01:52.272Z,100384.28
2023-05-16T00:04:54.473Z,100379.66
2023-05-16T00:07:55.969Z,100378.81
2023-05-16T00:10:57.551Z,100377.16
2023-05-16T00:13:59.085Z,100379.88
2023-05-16T00:17:00.979Z,100377.16
2023-05-16T00:20:10.985Z,100382.59
2023-05-16T00:23:12.896Z,100371.69
2023-05-16T00:26:14.417Z,100365.41
2023-05-16T00:29:15.970Z,100372.69
2023-05-16T00:32:18.615Z,100372.69
2023-05-16T00:35:20.466Z,100379.19
2023-05-16T00:38:25.009Z,100380.03
2023-05-16T00:41:26.782Z,100386.50
2023-05-16T00:44:28.672Z,100384.78
2023-05-16T00:47:30.393Z,100376.63
2023-05-16T00:50:34.250Z,100386.50
2023-05-16T00:53:37.065Z,100378.50
2023-05-16T00:56:38.669Z,100372.22
2023-05-16T00:59:42.387Z,100381.22
2023-05-16T01:02:44.428Z,100375.97
2023-05-16T01:05:47.128Z,100380.38
2023-05-16T01:08:48.719Z,100378.72
2023-05-16T01:12:07.193Z,100386.69
2023-05-16T01:15:13.103Z,100386.00
2023-05-16T01:18:25.580Z,100391.44
2023-05-16T01:21:43.495Z,100395.03
2023-05-16T01:25:21.037Z,100387.88
2023-05-16T01:28:22.869Z,100385.53
2023-05-16T01:31:25.060Z,100388.25
2023-05-16T01:34:26.818Z,100378.38
2023-05-16T01:37:38.182Z,100374.63
2023-05-16T01:41:06.442Z,100378.19
2023-05-16T01:44:16.796Z,100371.91
2023-05-16T01:47:21.325Z,100376.50
2023-05-16T01:50:29.813Z,100381.13
2023-05-16T01:53:38.926Z,100380.25
2023-05-16T01:56:47.308Z,100386.56
2023-05-16T01:59:48.924Z,100384.00
2023-05-16T02:02:50.556Z,100379.59
2023-05-16T02:05:52.281Z,100376.88
2023-05-16T02:08:53.793Z,100382.31
2023-05-16T02:11:55.341Z,100386.88
2023-05-16T02:14:56.857Z,100389.81
2023-05-16T02:17:58.741Z,100385.19
2023-05-16T02:21:00.437Z,100392.53
2023-05-16T02:24:02.007Z,100396.09
2023-05-16T02:27:03.767Z,100394.22
2023-05-16T02:30:06.426Z,100395.25
2023-05-16T02:33:08.566Z,100401.69
2023-05-16T02:36:11.022Z,100410.75
2023-05-16T02:39:12.834Z,100402.56
2023-05-16T02:42:14.351Z,100402.72
2023-05-16T02:45:15.861Z,100400.84
2023-05-16T02:48:17.336Z,100406.50
2023-05-16T02:51:20.883Z,100411.75
2023-05-16T02:54:22.414Z,100416.50
2023-05-16T02:57:23.950Z,100421.94
2023-05-16T03:00:25.568Z,100417.53
2023-05-16T03:03:27.260Z,100424.69
2023-05-16T03:06:30.220Z,100427.41
2023-05-16T03:09:31.714Z,100423.84
2023-05-16T03:12:33.570Z,100428.28
2023-05-16T03:15:35.158Z,100424.03
2023-05-16T03:18:37.425Z,100419.59
2023-05-16T03:21:40.028Z,100428.59
2023-05-16T03:24:41.670Z,100438.66
2023-05-16T03:27:46.158Z,100439.50
2023-05-16T03:30:47.983Z,100442.41
2023-05-16T03:33:49.880Z,100437.81
2023-05-16T03:36:51.686Z,100442.41
2023-05-16T03:39:53.217Z,100453.28
2023-05-16T03:42:54.678Z,100446.13
2023-05-16T03:45:56.274Z,100463.34
2023-05-16T03:48:57.822Z,100451.56
2023-05-16T03:51:59.436Z,100457.22
2023-05-16T03:55:02.375Z,100466.22
2023-05-16T03:58:03.879Z,100469.97
2023-05-16T04:01:05.506Z,100469.09
2023-05-16T04:04:07.117Z,100467.25
2023-05-16T04:07:08.904Z,100469.09
2023-05-16T04:10:11.037Z,100475.41
2023-05-16T04:13:12.572Z,100472.84
2023-05-16T04:16:14.173Z,100472.00
2023-05-16T04:19:15.732Z,100476.63
2023-05-16T04:22:17.339Z,100476.63
2023-05-16T04:25:18.862Z,100474.91
2023-05-16T04:28:20.925Z,100484.94
2023-05-16T04:31:23.075Z,100487.50
2023-05-16T04:34:27.913Z,100495.84
2023-05-16T04:37:29.422Z,100501.28
2023-05-16T04:40:31.042Z,100505.03
2023-05-16T04:43:33.346Z,100508.59
2023-05-16T04:46:34.924Z,100513.19
2023-05-16T04:49:36.865Z,100516.94
2023-05-16T04:52:38.489Z,100520.50
2023-05-16T04:55:39.993Z,100527.81
2023-05-16T04:58:42.901Z,100538.88
2023-05-16T05:01:44.670Z,100544.34
2023-05-16T05:04:46.817Z,100550.78
2023-05-16T05:07:48.464Z,100557.06
2023-05-16T05:10:50.068Z,100555.22
2023-05-16T05:13:53.130Z,100557.94
2023-05-16T05:16:55.179Z,100548.91
2023-05-16T05:19:56.695Z,100555.22
2023-05-16T05:22:58.195Z,100552.66
2023-05-16T05:25:59.724Z,100559.97
2023-05-16T05:29:05.402Z,100560.97
2023-05-16T05:32:08.462Z,100580.03
2023-05-16T05:35:10.001Z,100582.94
2023-05-16T05:38:11.495Z,100585.66
2023-05-16T05:41:13.235Z,100595.72
2023-05-16T05:44:14.711Z,100601.16
2023-05-16T05:47:16.581Z,100600.97
2023-05-16T05:50:18.313Z,100602.00
2023-05-16T05:53:19.845Z,100611.00
2023-05-16T05:56:21.847Z,100621.88
2023-05-16T05:59:23.348Z,100621.88
2023-05-16T06:02:25.027Z,100630.91
2023-05-16T06:05:26.893Z,100628.19
2023-05-16T06:08:28.621Z,100632.78
2023-05-16T06:11:30.099Z,100637.38
2023-05-16T06:14:31.600Z,100637.38
2023-05-16T06:17:33.148Z,100641.78
2023-05-16T06:20:34.627Z,100643.66
2023-05-16T06:23:36.139Z,100651.81
2023-05-16T06:26:37.728Z,100663.75
2023-05-16T06:29:39.627Z,100655.41
2023-05-16T06:32:41.483Z,100653.72
2023-05-16T06:35:43.141Z,100660.00
2023-05-16T06:38:45.241Z,100656.44
2023-05-16T06:41:46.923Z,100653.72
2023-05-16T06:44:51.221Z,100663.75
2023-05-16T06:47:54.128Z,100652.88
2023-05-16T06:50:57.640Z,100666.47
2023-05-16T06:53:59.154Z,100665.59
2023-05-16T06:57:00.727Z,100671.91
2023-05-16T07:00:02.286Z,100676.47
2023-05-16T07:03:04.707Z,100673.75
2023-05-16T07:06:06.498Z,100668.31
2023-05-16T07:09:08.369Z,100681.06
2023-05-16T07:12:10.004Z,100676.47
2023-05-16T07:15:11.578Z,100663.06
2023-05-16T07:18:13.194Z,100675.63
2023-05-16T07:21:14.935Z,100669.34
2023-05-16T07:24:16.483Z,100670.38
2023-05-16T07:27:18.133Z,100684.00
2023-05-16T07:30:20.720Z,100677.50
2023-05-16T07:33:22.235Z,100678.53
2023-05-16T07:36:23.991Z,100680.38
2023-05-16T07:39:25.542Z,100688.56
2023-05-16T07:42:27.300Z,100685.81
2023-05-16T07:45:29.241Z,100690.44
2023-05-16T07:48:31.027Z,100693.16
2023-05-16T07:51:32.657Z,100693.16
2023-05-16T07:54:35.246Z,100697.59
2023-05-16T07:57:36.932Z,100701.31
2023-05-16T08:00:38.557Z,100696.72
2023-05-16T08:03:40.187Z,100704.03
2023-05-16T08:06:41.820Z,100695.19
2023-05-16T08:09:43.394Z,100706.75
2023-05-16T08:12:44.971Z,100709.66
2023-05-16T08:15:46.802Z,100713.22
2023-05-16T08:18:48.380Z,100711.34
2023-05-16T08:21:49.996Z,100711.34
2023-05-16T08:24:51.496Z,100708.63
2023-05-16T08:27:53.006Z,100701.50
2023-05-16T08:30:54.633Z,100715.94
2023-05-16T08:33:56.200Z,100722.41
2023-05-16T08:36:57.792Z,100729.56
2023-05-16T08:39:59.293Z,100729.56
2023-05-16T08:43:01.517Z,100730.41
2023-05-16T08:46:03.151Z,100722.41
2023-05-16T08:49:07.748Z,100721.41
2023-05-16T08:52:10.782Z,100721.22
2023-05-16T08:55:13.591Z,100714.06
2023-05-16T08:58:16.399Z,100714.06
2023-05-16T09:01:18.787Z,100715.09
2023-05-16T09:04:20.771Z,100716.94
2023-05-16T09:07:22.394Z,100715.94
2023-05-16T09:10:23.912Z,100712.38
2023-05-16T09:13:26.177Z,100703.34
2023-05-16T09:16:27.788Z,100708.78
2023-05-16T09:19:40.280Z,100715.09
2023-05-16T09:22:51.982Z,100711.50
2023-05-16T09:25:53.791Z,100708.97
2023-05-16T09:28:56.041Z,100709.97
2023-05-16T09:32:05.710Z,100717.13
2023-05-16T09:35:14.728Z,100717.28
2023-05-16T09:38:17.777Z,100715.59
2023-05-16T09:41:22.033Z,100712.88
2023-05-16T09:44:23.726Z,100710.31
2023-05-16T09:47:28.159Z,100720.19
2023-05-16T09:50:29.765Z,100721.38
2023-05-16T09:53:33.177Z,100718.66
2023-05-16T09:56:51.557Z,100718.47
2023-05-16T09:59:53.191Z,100706.91
2023-05-16T10:02:57.586Z,100698.59
2023-05-16T10:06:00.542Z,100697.03
2023-05-16T10:09:03.347Z,100700.75
2023-05-16T10:12:08.616Z,100707.06
2023-05-16T10:15:10.463Z,100691.72
2023-05-16T10:18:14.286Z,100700.75
2023-05-16T10:21:18.005Z,100697.16
2023-05-16T10:24:26.408Z,100699.88
2023-05-16T10:27:28.343Z,100691.91
2023-05-16T10:30:34.962Z,100702.78
2023-05-16T10:33:36.945Z,100687.31
2023-05-16T10:36:39.728Z,100689.34
2023-05-16T10:39:41.523Z,100692.25
2023-05-16T10:43:01.101Z,100693.94
2023-05-16T10:46:04.961Z,100691.22
2023-05-16T10:49:23.703Z,100685.78
2023-05-16T10:52:34.235Z,100696.66
2023-05-16T10:55:36.541Z,100692.25
2023-05-16T10:58:40.989Z,100694.09
2023-05-16T11:01:42.688Z,100692.41
2023-05-16T11:04:51.839Z,100696.81
2023-05-16T11:08:04.687Z,100698.69
2023-05-16T11:11:48.698Z,100709.75
2023-05-16T11:14:51.809Z,100709.06
2023-05-16T11:18:32.527Z,100699.88
2023-05-16T11:22:09.177Z,100709.75
2023-05-16T11:25:10.922Z,100714.50
2023-05-16T11:28:13.798Z,100710.75
2023-05-16T11:31:16.311Z,100706.34
2023-05-16T11:34:18.410Z,100710.75
2023-05-16T11:37:20.722Z,100715.19
2023-05-16T11:40:22.420Z,100708.88
2023-05-16T11:43:24.138Z,100707.88
2023-05-16T11:46:25.826Z,100710.75
2023-05-16T11:49:30.329Z,100716.03
2023-05-16T11:52:33.019Z,100717.72
2023-05-16T11:58:39.699Z,100705.84
2023-05-16T12:01:41.399Z,100711.28
2023-05-16T12:04:46.972Z,100703.97
2023-05-16T12:07:48.485Z,100708.56
2023-05-16T12:10:52.410Z,100712.97
2023-05-16T12:13:55.317Z,100705.66
2023-05-16T12:16:57.238Z,100711.09
2023-05-16T12:19:59.260Z,100704.66
2023-05-16T12:23:00.784Z,100719.28
2023-05-16T12:26:06.770Z,100723.53
2023-05-16T12:29:08.630Z,100717.25
2023-05-16T12:32:10.221Z,100718.28
2023-05-16T12:35:13.134Z,100706.34
2023-05-16T12:38:16.661Z,100718.94
2023-05-16T12:41:22.964Z,100717.94
2023-05-16T12:44:25.100Z,100713.69
2023-05-16T12:47:36.742Z,100716.41
2023-05-16T12:50:39.591Z,100717.38
2023-05-16T12:54:01.512Z,100717.38
2023-05-16T12:57:12.671Z,100726.59
2023-05-16T13:00:16.047Z,100727.44
2023-05-16T13:03:17.731Z,100725.75
2023-05-16T13:06:19.364Z,100726.44
2023-05-16T13:09:21.107Z,100723.72
2023-05-16T13:12:26.883Z,100728.13
2023-05-16T13:15:28.920Z,100735.25
2023-05-16T13:18:31.610Z,100728.13
2023-05-16T13:21:33.318Z,100726.25
2023-05-16T13:24:34.964Z,100718.94
2023-05-16T13:27:36.826Z,100724.25
2023-05-16T13:30:38.322Z,100727.81
2023-05-16T13:33:39.887Z,100739.56
2023-05-16T13:36:53.126Z,100743.31
2023-05-16T13:39:56.181Z,100749.59
2023-05-16T13:42:57.783Z,100747.88
2023-05-16T13:45:59.389Z,100739.69
2023-05-16T13:49:01.977Z,100733.41
2023-05-16T13:52:03.776Z,100735.97
2023-05-16T13:55:06.206Z,100735.97
2023-05-16T13:58:07.704Z,100743.31
2023-05-16T14:01:09.327Z,100744.16
2023-05-16T14:04:11.053Z,100750.59
2023-05-16T14:07:12.715Z,100752.31
2023-05-16T14:10:14.325Z,100765.91
2023-05-16T14:13:16.270Z,100764.03
2023-05-16T14:16:17.993Z,100766.91
2023-05-16T14:19:19.842Z,100767.78
2023-05-16T14:22:21.507Z,100775.06
2023-05-16T14:25:23.373Z,100786.97
2023-05-16T14:28:24.983Z,100800.56
2023-05-16T14:31:26.744Z,100796.16
2023-05-16T14:34:28.428Z,100798.88
2023-05-16T14:37:29.924Z,100801.59
2023-05-16T14:40:31.530Z,100800.75
2023-05-16T14:43:33.106Z,100800.56
2023-05-16T14:46:34.710Z,100799.91
2023-05-16T14:49:36.733Z,100806.19
2023-05-16T14:52:39.938Z,100807.19
2023-05-16T14:55:41.559Z,100813.44
2023-05-16T14:58:43.133Z,100822.94
2023-05-16T15:01:44.773Z,100820.78
2023-05-16T15:04:46.448Z,100820.50
2023-05-16T15:07:48.457Z,100813.09
2023-05-16T15:10:50.035Z,100821.53
2023-05-16T15:13:51.569Z,100824.47
2023-05-16T15:16:53.474Z,100825.22
2023-05-16T15:19:55.681Z,100825.47
2023-05-16T15:22:57.342Z,100828.25
2023-05-16T15:25:59.135Z,100819.00
2023-05-16T15:29:00.710Z,100824.38
2023-05-16T15:32:05.774Z,100825.00
2023-05-16T15:35:07.805Z,100832.03
2023-05-16T15:38:09.405Z,100829.63
2023-05-16T15:41:24.014Z,100834.38
2023-05-16T15:44:34.274Z,100834.81
2023-05-16T15:47:35.866Z,100837.84
2023-05-16T15:50:37.459Z,100837.84
2023-05-16T15:53:39.553Z,100835.44
2023-05-16T15:56:43.176Z,100836.41
2023-05-16T15:59:44.683Z,100838.59
2023-05-16T16:02:50.440Z,100842.59
2023-05-16T16:05:52.633Z,100844.91
2023-05-16T16:08:54.215Z,100847.94
2023-05-16T16:11:56.690Z,100849.53
2023-05-16T16:14:58.236Z,100840.69
2023-05-16T16:18:00.514Z,100841.56
2023-05-16T16:21:02.348Z,100835.25
2023-05-16T16:24:04.331Z,100839.00
2023-05-16T16:27:06.114Z,100854.25
2023-05-16T16:30:09.555Z,100850.25
2023-05-16T16:33:11.137Z,100851.50
2023-05-16T16:36:12.874Z,100851.47
2023-05-16T16:39:14.454Z,100854.97
2023-05-16T16:42:16.633Z,100847.63
2023-05-16T16:45:18.964Z,100851.28
2023-05-16T16:48:21.581Z,100854.09
2023-05-16T16:51:23.229Z,100851.59
2023-05-16T16:54:24.827Z,100846.56
2023-05-16T16:57:26.699Z,100852.38
2023-05-16T17:00:28.492Z,100856.34
2023-05-16T17:03:30.056Z,100860.47
2023-05-16T17:06:31.764Z,100858.28
2023-05-16T17:09:35.788Z,100856.97
2023-05-16T17:12:44.361Z,100853.09
2023-05-16T17:15:47.142Z,100861.66
2023-05-16T17:18:48.771Z,100860.50
2023-05-16T17:21:52.011Z,100861.91
2023-05-16T17:24:53.769Z,100866.84
2023-05-16T17:27:56.254Z,100870.13
2023-05-16T17:30:57.904Z,100872.53
2023-05-16T17:33:59.412Z,100881.19
2023-05-16T17:37:01.379Z,100879.19
2023-05-16T17:40:05.751Z,100877.88
2023-05-16T17:43:07.361Z,100876.72
2023-05-16T17:46:08.946Z,100878.25
2023-05-16T17:49:10.614Z,100882.53
2023-05-16T17:52:12.185Z,100877.78
2023-05-16T17:55:13.860Z,100881.19
2023-05-16T17:58:15.457Z,100876.44
2023-05-16T18:01:17.224Z,100883.44
2023-05-16T18:04:21.419Z,100897.03
2023-05-16T18:07:25.210Z,100900.44
2023-05-16T18:10:31.573Z,100900.31
2023-05-16T18:13:42.435Z,100901.28
2023-05-16T18:16:44.517Z,100905.75
2023-05-16T18:19:46.063Z,100902.00
2023-05-16T18:22:47.968Z,100900.13
2023-05-16T18:25:49.506Z,100910.00
2023-05-16T18:28:51.019Z,100916.13
2023-05-16T18:31:52.871Z,100917.84
2023-05-16T18:34:54.668Z,100924.97
2023-05-16T18:37:56.316Z,100923.97
2023-05-16T18:40:57.967Z,100933.00
2023-05-16T18:43:59.977Z,100932.81
2023-05-16T18:47:01.640Z,100933.53
2023-05-16T18:50:03.452Z,100943.53
2023-05-16T18:53:04.993Z,100948.84
2023-05-16T18:56:06.614Z,100944.41
2023-05-16T18:59:08.560Z,100950.69
2023-05-16T19:02:10.066Z,100953.41
2023-05-16T19:05:12.027Z,100958.84
2023-05-16T19:08:13.713Z,100963.44
2023-05-16T19:11:17.093Z,100967.00
2023-05-16T19:14:18.774Z,100966.16
2023-05-16T19:17:20.434Z,100973.47
2023-05-16T19:20:21.996Z,100976.19
2023-05-16T19:23:23.518Z,100979.75
2023-05-16T19:26:25.263Z,100985.19
2023-05-16T19:29:26.917Z,100989.78
2023-05-16T19:32:28.596Z,100993.53
2023-05-16T19:35:30.482Z,100988.09
2023-05-16T19:38:32.164Z,100994.53
2023-05-16T19:41:33.797Z,100997.25
2023-05-16T19:44:35.483Z,100999.97
2023-05-16T19:47:37.023Z,100996.53
2023-05-16T19:50:38.803Z,100992.97
2023-05-16T19:53:40.853Z,100992.13
2023-05-16T19:56:42.414Z,100989.53
2023-05-16T19:59:43.958Z,100994.00
2023-05-16T20:02:45.579Z,100993.16
2023-05-16T20:05:47.276Z,100991.41
2023-05-16T20:08:48.842Z,100991.41
2023-05-16T20:11:50.384Z,100990.56
2023-05-16T20:14:52.066Z,100996.00
2023-05-16T20:17:53.741Z,100997.03
2023-05-16T20:20:57.416Z,100996.16
2023-05-16T20:24:00.298Z,100998.03
2023-05-16T20:27:02.024Z,101001.59
2023-05-16T20:30:04.849Z,101007.03
2023-05-16T20:33:06.450Z,101006.34
2023-05-16T20:36:08.081Z,101001.75
2023-05-16T20:39:09.626Z,101003.63
2023-05-16T20:42:11.193Z,101001.91
2023-05-16T20:45:12.778Z,101001.91
2023-05-16T20:48:14.454Z,101000.22
2023-05-16T20:51:16.065Z,100997.50
2023-05-16T20:54:17.682Z,100993.94
2023-05-16T20:57:19.196Z,100996.78
2023-05-16T21:00:20.905Z,100998.47
2023-05-16T21:03:22.454Z,100994.06
2023-05-16T21:06:24.277Z,100996.78
2023-05-16T21:09:25.849Z,100995.94
2023-05-16T21:12:27.515Z,100995.09
2023-05-16T21:15:29.354Z,100995.09
2023-05-16T21:18:31.228Z,101002.53
2023-05-16T21:21:32.929Z,100997.94
2023-05-16T21:24:35.590Z,100996.09
2023-05-16T21:27:37.331Z,100995.38
2023-05-16T21:30:38.870Z,100995.38
2023-05-16T21:33:40.466Z,100998.09
2023-05-16T21:36:42.026Z,100998.09
2023-05-16T21:39:43.559Z,100998.28
2023-05-16T21:42:45.997Z,100999.13
2023-05-16T21:45:47.491Z,100994.69
2023-05-16T21:48:49.142Z,100999.25
2023-05-16T21:51:50.938Z,101012.84
2023-05-16T21:54:52.474Z,101008.31
2023-05-16T21:57:54.061Z,101006.56
2023-05-16T22:00:55.738Z,101013.03
2023-05-16T22:03:57.602Z,101014.03
2023-05-16T22:06:59.321Z,101020.34
2023-05-16T22:10:00.936Z,101019.47
2023-05-16T22:13:02.523Z,101024.91
2023-05-16T22:16:05.447Z,101027.63
2023-05-16T22:19:07.621Z,101018.59
2023-05-16T22:22:09.902Z,101023.19
2023-05-16T22:25:11.470Z,101016.06
2023-05-16T22:28:13.000Z,101023.19
2023-05-16T22:31:14.553Z,101022.34
2023-05-16T22:34:16.124Z,101024.22
2023-05-16T22:37:17.657Z,101018.78
2023-05-16T22:40:19.252Z,101015.19
2023-05-16T22:43:20.920Z,101013.34
2023-05-16T22:46:22.437Z,101018.91
2023-05-16T22:49:24.089Z,101018.06
2023-05-16T22:52:25.689Z,101016.19
2023-05-16T22:55:27.450Z,101019.06
2023-05-16T22:58:29.086Z,101015.50
2023-05-16T23:01:30.750Z,101016.19
2023-05-16T23:04:32.533Z,101024.34
2023-05-16T23:07:34.173Z,101019.94
2023-05-16T23:10:36.523Z,101027.06
2023-05-16T23:13:38.617Z,101020.94
2023-05-16T23:16:40.149Z,101017.38
2023-05-16T23:19:41.792Z,101011.94
2023-05-16T23:22:43.325Z,101025.53
2023-05-16T23:25:44.973Z,101026.53
2023-05-16T23:28:46.505Z,101031.97
2023-05-16T23:31:48.126Z,101031.09
2023-05-16T23:34:49.742Z,101030.13
2023-05-16T23:37:51.351Z,101037.41
2023-05-16T23:40:52.981Z,101034.84
2023-05-16T23:43:54.591Z,101040.28
2023-05-16T23:46:56.119Z,101033.16
2023-05-16T23:49:57.686Z,101039.44
2023-05-16T23:52:59.208Z,101040.41
2023-05-16T23:56:00.874Z,101040.41
2023-05-16T23:59:02.436Z,101035.88
